Terminal Aerodrome Forecast
Issued by NWS Cleveland, OH

Home | Current Version | Previous Version | Text Only | Print | Product List | Glossary Off
Versions: 1 2 3 4 5 6 7 8 9 10 11 12 13 14 15 16 17 18 19 20 21 22

000
FTUS41 KCLE 251100
TAFYNG
TAF
KYNG 251133Z 2512/2612 14011KT 6SM -RA BR SCT030 OVC070
      TEMPO 2513/2515 3SM -RA
     FM251530 16014G22KT P6SM VCSH OVC020
     FM251800 21014G22KT P6SM BKN025 BKN045
     FM252200 24012KT P6SM BKN025 BKN250
     FM260000 23005KT P6SM BKN250
     FM260600 VRB03KT 3SM BR BKN250=

USA.gov is the U.S. government's official web portal to all federal, state and local government web resources and services.